Cherry Grove, Oregon
Current Conditions -  °F | °C
As of 11:06 AM on Monday 20 Oct 2014 (Local Time) from KHIO Reporting Station
Broken Clouds Broken Clouds  
Wind Chill: 60°   Ceiling: 10000
Heat Index: 60°   Visibility: 10mi
Dew Point: 57°   Wind: 10mph
Humidity: 90%   Direction: 170°S
Pressure: 29.77"   Gusts: 17mph
Location:  45.45°N, 123.24°W
Report Text: KHIO 201806Z 17009G15KT 10SM SCT012 BKN100 16/14 A2977 RMK AO2 T01560139
Loading
Personal Weather Stations






























Interactive Weather Map New forecast layout! Learn more

10-Day Weather Forecast

Advertisements
Track Severe Weather on mobile